Time;durP1;ratioP1;P1;durP2;ratioP2;P2;SDS_P1;SDS_P2;PMS_P1;PMS_P2;Temp;Humidity;BMP_temperature;BMP_pressure;BME280_temperature;BME280_humidity;BME280_pressure;Samples;Min_cycle;Max_cycle;Signal;HPM_P1;HPM_P2
2023/07/15 00:02:09;;;;;;;2.23;1.63;;;20.90;99.90;;;;;;5136194;27;20485;-77
2023/07/15 00:04:36;;;;;;;1.50;1.40;;;20.90;99.90;;;;;;5136610;27;20460;-77
2023/07/15 00:07:05;;;;;;;1.53;1.20;;;20.90;99.90;;;;;;5136290;27;20445;-77
2023/07/15 00:09:35;;;;;;;2.30;1.67;;;20.80;99.90;;;;;;5136531;27;20472;-77
2023/07/15 00:12:01;;;;;;;3.23;1.40;;;20.80;99.90;;;;;;5136188;27;20937;-77
2023/07/15 00:14:29;;;;;;;4.50;1.93;;;20.80;99.90;;;;;;5136470;27;20450;-77
2023/07/15 00:16:57;;;;;;;1.33;1.17;;;20.70;99.90;;;;;;5136429;27;20441;-77
2023/07/15 00:19:23;;;;;;;1.67;1.30;;;20.80;99.90;;;;;;5136294;27;20452;-77
2023/07/15 00:21:50;;;;;;;1.60;1.50;;;20.80;99.90;;;;;;5136239;27;20473;-77
2023/07/15 00:24:17;;;;;;;2.23;1.30;;;20.80;99.90;;;;;;5135915;27;20821;-77
2023/07/15 00:26:47;;;;;;;2.10;1.20;;;20.80;99.90;;;;;;5136213;27;20448;-77
2023/07/15 00:29:14;;;;;;;1.40;1.30;;;20.80;99.90;;;;;;5135798;27;20937;-77
2023/07/15 00:31:43;;;;;;;1.83;1.20;;;20.80;99.90;;;;;;5135783;27;20446;-77
2023/07/15 00:34:13;;;;;;;2.43;1.53;;;20.90;99.90;;;;;;5136048;27;20506;-77
2023/07/15 00:36:40;;;;;;;3.40;1.90;;;20.80;99.90;;;;;;5136001;27;20449;-77
2023/07/15 00:39:08;;;;;;;1.37;1.27;;;20.80;99.90;;;;;;5135646;27;20467;-77
2023/07/15 00:41:36;;;;;;;4.50;1.53;;;20.80;99.90;;;;;;5135546;27;20904;-77
2023/07/15 00:44:05;;;;;;;1.43;1.33;;;20.80;99.90;;;;;;5135552;27;20450;-77
2023/07/15 00:46:56;;;;;;;1.50;1.40;;;20.80;99.90;;;;;;5135511;27;21008;-78
2023/07/15 00:49:25;;;;;;;1.30;1.20;;;20.80;99.90;;;;;;5135479;27;20452;-82
2023/07/15 00:52:00;;;;;;;1.60;1.50;;;20.80;99.90;;;;;;5135724;27;20437;-82
2023/07/15 00:54:28;;;;;;;1.43;1.33;;;20.80;99.90;;;;;;5135763;27;20432;-82
2023/07/15 00:56:56;;;;;;;1.70;1.60;;;20.80;99.90;;;;;;5135639;27;20850;-82
2023/07/15 00:59:23;;;;;;;1.43;1.33;;;20.80;99.90;;;;;;5135213;27;20511;-83
2023/07/15 01:01:53;;;;;;;1.73;1.33;;;20.80;99.90;;;;;;5135059;27;20491;-82
2023/07/15 01:04:21;;;;;;;2.17;1.57;;;20.80;99.90;;;;;;5134471;27;20438;-82
2023/07/15 01:06:48;;;;;;;1.10;1.00;;;20.80;99.90;;;;;;5135495;27;20444;-83
2023/07/15 01:09:15;;;;;;;2.50;1.50;;;20.80;99.90;;;;;;5135323;27;20452;-82
2023/07/15 01:11:41;;;;;;;3.00;1.60;;;20.80;99.90;;;;;;5135361;27;20445;-82
2023/07/15 01:14:09;;;;;;;1.70;1.60;;;20.80;99.90;;;;;;5135297;27;20437;-82
2023/07/15 01:16:36;;;;;;;2.40;1.60;;;20.80;99.90;;;;;;5135282;27;20463;-83
2023/07/15 01:19:04;;;;;;;1.87;1.77;;;20.90;99.90;;;;;;5135172;27;20449;-82
2023/07/15 01:21:33;;;;;;;1.90;1.40;;;20.90;99.90;;;;;;5135040;27;20818;-82
2023/07/15 01:24:02;;;;;;;1.40;1.30;;;20.90;99.90;;;;;;5135181;27;20499;-83
2023/07/15 01:26:29;;;;;;;1.43;1.33;;;20.80;99.90;;;;;;5135079;27;20473;-82
2023/07/15 01:28:56;;;;;;;3.60;1.73;;;20.80;99.90;;;;;;5135017;27;20445;-83
2023/07/15 01:31:22;;;;;;;2.30;1.70;;;20.80;99.90;;;;;;5134942;27;20458;-82
2023/07/15 01:33:49;;;;;;;1.67;1.40;;;20.80;99.90;;;;;;5134962;27;20445;-82
2023/07/15 01:36:16;;;;;;;1.50;1.40;;;20.80;99.90;;;;;;5134597;27;20450;-82
2023/07/15 01:38:43;;;;;;;3.40;1.57;;;20.70;99.90;;;;;;5134901;27;20442;-82
2023/07/15 01:41:11;;;;;;;1.50;1.40;;;20.70;99.90;;;;;;5134689;27;20529;-83
2023/07/15 01:43:38;;;;;;;1.53;1.43;;;20.70;99.90;;;;;;5134786;27;20441;-82
2023/07/15 01:46:05;;;;;;;1.63;1.53;;;20.60;99.90;;;;;;5135292;27;20441;-82
2023/07/15 01:48:31;;;;;;;1.43;1.33;;;20.60;99.90;;;;;;5134667;27;20453;-83
2023/07/15 01:50:58;;;;;;;1.40;1.30;;;20.50;99.90;;;;;;5134578;27;20465;-82
2023/07/15 01:53:25;;;;;;;1.43;1.33;;;20.50;99.90;;;;;;5134325;27;20812;-83
2023/07/15 01:55:52;;;;;;;1.40;1.30;;;20.50;99.90;;;;;;5134651;27;20801;-82
2023/07/15 01:58:20;;;;;;;1.63;1.53;;;20.40;99.90;;;;;;5134258;27;20971;-83
2023/07/15 02:00:48;;;;;;;1.47;1.37;;;20.30;99.90;;;;;;5134190;27;20836;-82
2023/07/15 02:03:14;;;;;;;1.10;1.10;;;20.30;99.90;;;;;;5134577;27;20528;-82
2023/07/15 02:05:41;;;;;;;1.73;1.20;;;20.30;99.90;;;;;;5134496;27;20448;-83
2023/07/15 02:08:08;;;;;;;1.83;1.30;;;20.30;99.90;;;;;;5134457;27;20441;-82
2023/07/15 02:10:35;;;;;;;2.43;2.23;;;20.30;99.90;;;;;;5134382;27;20536;-83
2023/07/15 02:13:01;;;;;;;1.77;1.40;;;20.30;99.90;;;;;;5134079;27;20959;-83
2023/07/15 02:15:29;;;;;;;1.37;1.27;;;20.30;99.90;;;;;;5134208;27;20442;-82
2023/07/15 02:17:56;;;;;;;1.60;1.50;;;20.40;99.90;;;;;;5134358;27;20479;-82
2023/07/15 02:20:23;;;;;;;1.30;1.20;;;20.40;99.90;;;;;;5133936;27;20812;-82
2023/07/15 02:22:49;;;;;;;1.60;1.50;;;20.40;99.90;;;;;;5134268;27;20473;-82
2023/07/15 02:25:17;;;;;;;1.83;1.33;;;20.40;99.90;;;;;;5133970;27;20960;-83
2023/07/15 02:27:43;;;;;;;1.77;1.60;;;20.40;99.90;;;;;;5134293;27;20446;-82
2023/07/15 02:30:11;;;;;;;1.40;1.20;;;20.40;99.90;;;;;;5134495;27;20536;-82
2023/07/15 02:32:40;;;;;;;2.80;2.60;;;20.50;99.90;;;;;;5134221;27;20453;-82
2023/07/15 02:35:10;;;;;;;1.80;1.70;;;20.50;99.90;;;;;;5133888;27;20447;-82
2023/07/15 02:37:38;;;;;;;1.20;1.10;;;20.50;99.90;;;;;;5134310;27;20445;-82
2023/07/15 02:40:08;;;;;;;2.03;1.80;;;20.50;99.90;;;;;;5134095;27;20518;-83
2023/07/15 02:42:36;;;;;;;2.43;1.97;;;20.50;99.90;;;;;;5134047;27;20478;-82
2023/07/15 02:45:04;;;;;;;1.90;1.80;;;20.50;99.90;;;;;;5134097;27;20453;-82
2023/07/15 02:47:31;;;;;;;1.43;1.33;;;20.50;99.90;;;;;;5134042;27;20480;-83
2023/07/15 02:50:03;;;;;;;1.50;1.40;;;20.50;99.90;;;;;;5133976;27;20544;-82
2023/07/15 02:52:30;;;;;;;1.47;1.37;;;20.40;99.90;;;;;;5134128;27;20426;-82
2023/07/15 02:54:56;;;;;;;1.90;1.43;;;20.40;99.90;;;;;;5134029;27;20450;-82
2023/07/15 02:57:23;;;;;;;1.20;1.20;;;20.30;99.90;;;;;;5134037;27;20445;-82
2023/07/15 02:59:50;;;;;;;1.63;1.53;;;20.40;99.90;;;;;;5133951;27;20472;-82
2023/07/15 03:02:17;;;;;;;2.70;1.30;;;20.40;99.90;;;;;;5133463;27;20493;-82
2023/07/15 03:04:44;;;;;;;1.23;1.13;;;20.30;99.90;;;;;;5133613;27;20461;-82
2023/07/15 03:07:14;;;;;;;4.03;1.70;;;20.40;99.90;;;;;;5133596;27;20495;-82
2023/07/15 03:09:41;;;;;;;1.90;1.80;;;20.40;99.90;;;;;;5133604;27;20483;-83
2023/07/15 03:12:09;;;;;;;2.43;1.47;;;20.40;99.90;;;;;;5133546;27;20441;-82
2023/07/15 03:14:35;;;;;;;1.83;1.70;;;20.40;99.90;;;;;;5133876;27;20437;-82
2023/07/15 03:17:02;;;;;;;3.17;2.37;;;20.40;99.90;;;;;;5133827;27;20444;-82
2023/07/15 03:19:30;;;;;;;1.50;1.40;;;20.40;99.90;;;;;;5133441;27;20457;-82
2023/07/15 03:21:57;;;;;;;1.77;1.67;;;20.30;99.90;;;;;;5133665;27;20515;-82
2023/07/15 03:24:25;;;;;;;1.60;1.50;;;20.30;99.90;;;;;;5133439;27;20941;-82
2023/07/15 03:26:52;;;;;;;1.50;1.40;;;20.40;99.90;;;;;;5135669;27;20460;-82
2023/07/15 03:29:19;;;;;;;1.87;1.70;;;20.30;99.90;;;;;;5136982;27;20959;-83
2023/07/15 03:31:45;;;;;;;2.73;1.47;;;20.40;99.90;;;;;;5137345;27;20442;-82
2023/07/15 03:34:12;;;;;;;1.60;1.50;;;20.40;99.90;;;;;;5137312;27;20450;-82
2023/07/15 03:36:39;;;;;;;2.10;1.80;;;20.30;99.90;;;;;;5137232;27;20450;-82
2023/07/15 03:39:06;;;;;;;2.03;1.93;;;20.30;99.90;;;;;;5137198;27;20452;-82
2023/07/15 03:41:34;;;;;;;2.33;1.80;;;20.40;99.90;;;;;;5136988;27;20453;-82
2023/07/15 03:44:00;;;;;;;1.77;1.53;;;20.40;99.90;;;;;;5136804;27;20905;-82
2023/07/15 03:46:27;;;;;;;1.63;1.53;;;20.40;99.90;;;;;;5137257;27;20469;-82
2023/07/15 03:48:54;;;;;;;1.60;1.50;;;20.40;99.90;;;;;;5136960;27;20448;-82
2023/07/15 03:51:21;;;;;;;1.40;1.30;;;20.50;99.90;;;;;;5136931;27;20799;-83
2023/07/15 03:53:47;;;;;;;1.63;1.53;;;20.40;99.90;;;;;;5136947;27;20448;-82
2023/07/15 03:56:14;;;;;;;2.93;2.07;;;20.50;99.90;;;;;;5136874;27;20457;-82
2023/07/15 03:58:42;;;;;;;1.77;1.67;;;20.50;99.90;;;;;;5136562;27;20441;-82
2023/07/15 04:01:09;;;;;;;1.50;1.40;;;20.50;99.90;;;;;;5136494;27;20482;-82
2023/07/15 04:03:36;;;;;;;1.93;1.63;;;20.60;99.90;;;;;;5136722;27;20468;-82
2023/07/15 04:06:03;;;;;;;2.03;1.90;;;20.60;99.90;;;;;;5136690;27;20866;-82
2023/07/15 04:08:30;;;;;;;1.30;1.20;;;20.60;99.90;;;;;;5137849;27;20442;-82
2023/07/15 04:10:56;;;;;;;3.33;1.80;;;20.60;99.90;;;;;;5136520;27;20474;-82
2023/07/15 04:13:23;;;;;;;1.47;1.37;;;20.70;99.90;;;;;;5136567;27;20438;-82
2023/07/15 04:15:51;;;;;;;2.20;1.77;;;20.70;99.90;;;;;;5136523;27;20446;-83
2023/07/15 04:18:18;;;;;;;2.00;1.60;;;20.70;99.90;;;;;;5136076;27;20967;-83
2023/07/15 04:20:45;;;;;;;1.37;1.30;;;20.70;99.90;;;;;;5136342;27;20458;-82
2023/07/15 04:23:12;;;;;;;3.53;1.50;;;20.70;99.90;;;;;;5135978;27;21020;-83
2023/07/15 04:25:39;;;;;;;2.93;1.60;;;20.80;99.90;;;;;;5136274;27;20476;-82
2023/07/15 04:28:06;;;;;;;1.80;1.60;;;20.80;99.90;;;;;;5136242;27;20448;-82
2023/07/15 04:30:33;;;;;;;2.80;2.00;;;20.90;99.90;;;;;;5136115;27;20469;-82
2023/07/15 04:33:02;;;;;;;1.93;1.63;;;20.80;99.90;;;;;;5135798;27;20944;-82
2023/07/15 04:35:29;;;;;;;4.30;1.40;;;20.90;99.90;;;;;;5136080;27;20442;-82
2023/07/15 04:37:56;;;;;;;1.43;1.30;;;20.90;99.90;;;;;;5135920;27;20445;-82
2023/07/15 04:40:22;;;;;;;2.17;1.57;;;20.90;99.90;;;;;;5135643;27;21007;-82
2023/07/15 04:42:49;;;;;;;2.63;1.90;;;20.90;99.90;;;;;;5135832;27;20481;-82
2023/07/15 04:45:16;;;;;;;3.13;1.60;;;21.00;99.90;;;;;;5135609;27;20936;-83
2023/07/15 04:47:42;;;;;;;1.70;1.53;;;21.00;99.90;;;;;;5135542;27;20453;-82
2023/07/15 04:50:11;;;;;;;1.83;1.73;;;21.00;99.90;;;;;;5135725;27;20468;-82
2023/07/15 04:52:38;;;;;;;2.17;1.20;;;21.10;99.90;;;;;;5135396;27;20960;-82
2023/07/15 04:55:05;;;;;;;1.13;1.13;;;21.10;99.90;;;;;;5135728;27;20449;-82
2023/07/15 04:57:32;;;;;;;1.90;1.80;;;21.10;99.90;;;;;;5135281;27;20437;-82
2023/07/15 04:59:59;;;;;;;1.50;1.40;;;21.20;99.90;;;;;;5135528;27;20476;-82
2023/07/15 05:02:25;;;;;;;1.80;1.70;;;21.20;99.90;;;;;;5134942;27;20846;-82
2023/07/15 05:04:52;;;;;;;1.90;1.53;;;21.20;99.90;;;;;;5135521;27;20449;-82
2023/07/15 05:07:21;;;;;;;1.10;1.07;;;21.20;99.90;;;;;;5135094;27;20819;-82
2023/07/15 05:09:49;;;;;;;1.57;1.47;;;21.20;99.90;;;;;;5135323;27;20469;-82
2023/07/15 05:12:16;;;;;;;1.80;1.70;;;21.30;99.90;;;;;;5135666;27;20438;-82
2023/07/15 05:14:42;;;;;;;1.97;1.67;;;21.30;99.90;;;;;;5135303;27;20449;-82
2023/07/15 05:17:09;;;;;;;1.40;1.30;;;21.30;99.90;;;;;;5134945;27;20433;-82
2023/07/15 05:19:36;;;;;;;1.70;1.60;;;21.40;99.90;;;;;;5135120;27;20473;-82
2023/07/15 05:22:02;;;;;;;2.03;1.30;;;21.40;99.90;;;;;;5134826;27;20929;-82
2023/07/15 05:24:31;;;;;;;2.90;1.53;;;21.50;99.90;;;;;;5135137;27;20803;-82
2023/07/15 05:26:58;;;;;;;2.47;1.23;;;21.50;99.90;;;;;;5135041;27;20500;-82
2023/07/15 05:29:25;;;;;;;1.70;1.60;;;21.60;99.90;;;;;;5134957;27;20468;-82
2023/07/15 05:31:52;;;;;;;1.40;1.20;;;21.70;99.90;;;;;;5134959;27;20437;-82
2023/07/15 05:34:18;;;;;;;1.80;1.70;;;21.70;99.90;;;;;;5134924;27;20437;-82
2023/07/15 05:36:45;;;;;;;2.10;1.70;;;21.80;99.90;;;;;;5134897;27;20490;-82
2023/07/15 05:39:12;;;;;;;2.07;1.97;;;21.80;99.90;;;;;;5134811;27;20445;-82
2023/07/15 05:41:40;;;;;;;1.50;1.40;;;21.90;99.90;;;;;;5134810;27;20445;-82
2023/07/15 05:44:07;;;;;;;1.27;1.10;;;21.90;99.90;;;;;;5134780;27;20465;-82
2023/07/15 05:46:34;;;;;;;1.47;1.37;;;21.90;99.90;;;;;;5134742;27;20442;-82
2023/07/15 05:49:03;;;;;;;2.47;1.50;;;22.00;99.90;;;;;;5134185;27;20453;-82
2023/07/15 05:51:29;;;;;;;1.50;1.40;;;22.10;99.90;;;;;;5134667;27;20827;-82
2023/07/15 05:53:56;;;;;;;3.47;1.70;;;22.20;99.90;;;;;;5134668;27;20453;-82
2023/07/15 05:56:23;;;;;;;1.73;1.63;;;22.30;99.90;;;;;;5134619;27;20441;-82
2023/07/15 05:58:52;;;;;;;1.17;1.07;;;22.40;99.90;;;;;;5134607;27;20494;-82
2023/07/15 06:01:18;;;;;;;1.63;1.40;;;22.50;99.90;;;;;;5133934;27;21004;-82
2023/07/15 06:03:45;;;;;;;1.57;1.47;;;22.60;99.90;;;;;;5134529;27;20457;-82
2023/07/15 06:06:13;;;;;;;1.40;1.20;;;22.70;99.90;;;;;;5134511;27;20789;-82
2023/07/15 06:08:39;;;;;;;1.67;1.20;;;22.80;99.90;;;;;;5134480;27;20207;-82
2023/07/15 06:11:06;;;;;;;1.40;1.17;;;22.90;99.90;;;;;;5134405;27;20469;-82
2023/07/15 06:13:33;;;;;;;2.00;1.23;;;23.10;99.90;;;;;;5134344;27;20191;-82
2023/07/15 06:16:01;;;;;;;1.90;1.70;;;23.20;99.90;;;;;;5134290;27;20207;-83
2023/07/15 06:18:28;;;;;;;1.30;1.20;;;23.40;99.90;;;;;;5134264;27;20196;-82
2023/07/15 06:20:55;;;;;;;3.17;1.00;;;23.60;99.90;;;;;;5134001;27;20216;-82
2023/07/15 06:23:22;;;;;;;1.30;1.23;;;23.70;99.90;;;;;;5134272;27;20219;-82
2023/07/15 06:25:49;;;;;;;1.60;1.50;;;23.80;99.90;;;;;;5134332;27;20220;-82
2023/07/15 06:28:16;;;;;;;2.10;1.70;;;23.90;99.90;;;;;;5134253;27;20196;-82
2023/07/15 06:30:44;;;;;;;1.48;1.38;;;24.20;99.90;;;;;;5134041;27;20220;-81
2023/07/15 06:33:12;;;;;;;1.25;1.13;;;24.40;99.90;;;;;;5134582;27;20237;-80
2023/07/15 06:35:39;;;;;;;1.48;1.20;;;24.60;99.90;;;;;;5134248;27;20203;-81
2023/07/15 06:38:07;;;;;;;2.40;1.40;;;24.80;99.90;;;;;;5134290;27;20204;-81
2023/07/15 06:40:33;;;;;;;1.10;0.88;;;25.10;99.90;;;;;;5134087;27;20318;-81
2023/07/15 06:43:00;;;;;;;1.27;1.13;;;25.30;99.90;;;;;;5133760;27;20234;-81
2023/07/15 06:45:33;;;;;;;1.08;1.00;;;25.50;99.90;;;;;;5134212;27;20204;-79
2023/07/15 06:48:00;;;;;;;1.30;1.30;;;25.70;99.90;;;;;;5134162;27;20195;-79
2023/07/15 06:50:29;;;;;;;1.30;1.20;;;25.90;99.90;;;;;;5133957;27;20230;-79
2023/07/15 06:52:55;;;;;;;0.93;0.93;;;26.00;99.60;;;;;;5134104;27;20196;-82
2023/07/15 06:55:22;;;;;;;1.17;0.95;;;26.20;98.90;;;;;;5134023;27;20201;-82
2023/07/15 06:57:49;;;;;;;1.73;1.27;;;26.30;99.00;;;;;;5134000;27;20204;-79
2023/07/15 07:00:16;;;;;;;0.75;0.75;;;26.40;98.30;;;;;;5133944;27;20220;-80
2023/07/15 07:02:42;;;;;;;1.80;1.65;;;26.50;98.20;;;;;;5136808;27;20712;-79
2023/07/15 07:05:09;;;;;;;1.27;1.17;;;26.60;97.50;;;;;;5138540;27;20219;-79
2023/07/15 07:07:37;;;;;;;0.90;0.90;;;26.80;97.20;;;;;;5137464;27;20291;-80
2023/07/15 07:10:05;;;;;;;1.10;1.00;;;27.10;97.40;;;;;;5137705;27;20220;-80
2023/07/15 07:12:31;;;;;;;1.23;1.10;;;27.20;96.80;;;;;;5137705;27;20196;-80
2023/07/15 07:14:58;;;;;;;1.85;1.00;;;27.50;96.30;;;;;;5137706;27;20203;-79
2023/07/15 07:17:25;;;;;;;0.95;0.95;;;27.50;96.70;;;;;;5137261;27;20542;-79
2023/07/15 07:19:52;;;;;;;1.52;1.20;;;27.50;96.40;;;;;;5137491;27;20228;-79
2023/07/15 07:22:18;;;;;;;1.88;1.00;;;27.70;97.10;;;;;;5137275;27;20203;-80
2023/07/15 07:24:47;;;;;;;1.40;1.30;;;27.70;95.90;;;;;;5137317;27;20220;-82
2023/07/15 07:27:13;;;;;;;1.23;1.15;;;27.80;95.90;;;;;;5137108;27;20281;-82
2023/07/15 07:29:40;;;;;;;1.40;1.30;;;27.90;95.40;;;;;;5136997;27;20703;-82
2023/07/15 07:32:07;;;;;;;1.17;1.17;;;28.10;95.40;;;;;;5137364;27;20205;-81
2023/07/15 07:34:34;;;;;;;1.58;1.48;;;28.20;95.70;;;;;;5137255;27;20205;-82
2023/07/15 07:37:01;;;;;;;1.00;1.00;;;28.40;94.70;;;;;;5137252;27;20196;-82
2023/07/15 07:39:28;;;;;;;1.17;1.17;;;28.50;93.90;;;;;;5137141;27;20196;-82
2023/07/15 07:41:56;;;;;;;0.90;0.90;;;28.70;94.20;;;;;;5137134;27;20201;-81
2023/07/15 07:44:23;;;;;;;0.85;0.85;;;28.90;93.40;;;;;;5137055;27;20229;-81
2023/07/15 07:46:49;;;;;;;1.08;1.05;;;29.10;92.60;;;;;;5137041;27;20226;-81
2023/07/15 07:49:17;;;;;;;1.30;1.20;;;29.30;92.10;;;;;;5136989;27;20208;-81
2023/07/15 07:51:43;;;;;;;0.93;0.80;;;29.50;91.70;;;;;;5136958;27;20200;-81
2023/07/15 07:54:10;;;;;;;1.02;1.02;;;29.60;91.30;;;;;;5136514;27;20591;-81
2023/07/15 07:56:37;;;;;;;1.30;1.08;;;29.70;90.90;;;;;;5136927;27;20194;-81
2023/07/15 07:59:05;;;;;;;1.25;1.17;;;29.80;91.00;;;;;;5136753;27;20204;-81
2023/07/15 08:01:32;;;;;;;1.05;1.05;;;29.70;90.70;;;;;;5136352;27;20236;-81
2023/07/15 08:03:58;;;;;;;1.05;1.05;;;29.60;90.00;;;;;;5136577;27;20236;-81
2023/07/15 08:06:25;;;;;;;1.20;1.10;;;29.90;90.90;;;;;;5136332;27;20681;-81
2023/07/15 08:08:53;;;;;;;1.73;1.10;;;30.20;89.80;;;;;;5136562;27;20578;-82
2023/07/15 08:11:20;;;;;;;1.15;1.05;;;30.50;85.20;;;;;;5136315;27;20228;-81
2023/07/15 08:13:47;;;;;;;1.08;0.98;;;30.60;86.60;;;;;;5136067;27;20200;-81
2023/07/15 08:16:33;;;;;;;2.75;1.00;;;30.90;84.50;;;;;;5136142;27;20200;-81
2023/07/15 08:19:01;;;;;;;0.98;0.80;;;30.90;86.00;;;;;;5136428;27;20551;-81
2023/07/15 08:21:28;;;;;;;1.05;0.90;;;30.80;84.50;;;;;;5135999;27;20225;-81
2023/07/15 08:23:55;;;;;;;0.82;0.80;;;30.70;82.50;;;;;;5135900;27;20588;-81
2023/07/15 08:26:22;;;;;;;1.23;1.13;;;30.40;83.10;;;;;;5135971;27;20667;-81
2023/07/15 08:28:49;;;;;;;1.20;1.13;;;30.20;84.50;;;;;;5136257;27;20208;-81
2023/07/15 08:31:16;;;;;;;0.98;0.98;;;30.20;85.30;;;;;;5136117;27;20582;-80
2023/07/15 08:33:45;;;;;;;1.02;1.02;;;30.00;85.30;;;;;;5135823;27;20197;-81
2023/07/15 08:36:11;;;;;;;1.45;1.25;;;30.10;85.40;;;;;;5136074;27;20200;-78
2023/07/15 08:38:38;;;;;;;0.77;0.70;;;30.10;84.00;;;;;;5136091;27;20598;-81
2023/07/15 08:41:05;;;;;;;1.55;1.40;;;30.30;85.80;;;;;;5135622;27;20592;-81
2023/07/15 08:43:32;;;;;;;1.17;0.90;;;30.60;85.40;;;;;;5135898;27;20216;-82
2023/07/15 08:46:01;;;;;;;0.80;0.80;;;30.90;84.30;;;;;;5135914;27;20225;-81
2023/07/15 08:48:28;;;;;;;1.25;1.00;;;31.20;80.60;;;;;;5135805;27;20208;-81
2023/07/15 08:50:58;;;;;;;1.30;1.20;;;31.30;81.10;;;;;;5135378;27;20730;-81
2023/07/15 08:53:27;;;;;;;0.90;0.90;;;31.60;81.00;;;;;;5135447;27;20659;-81
2023/07/15 08:55:55;;;;;;;1.00;1.00;;;31.70;81.70;;;;;;5135493;27;20224;-81
2023/07/15 08:58:22;;;;;;;1.20;1.20;;;31.90;80.60;;;;;;5135372;27;20253;-81
2023/07/15 09:00:50;;;;;;;1.20;1.20;;;31.80;80.00;;;;;;5135277;27;20216;-81
2023/07/15 09:03:16;;;;;;;1.25;1.17;;;31.70;79.10;;;;;;5135207;27;20633;-81
2023/07/15 09:05:44;;;;;;;1.00;1.00;;;31.80;79.00;;;;;;5136346;27;20196;-82
2023/07/15 09:08:13;;;;;;;1.25;1.20;;;32.00;79.00;;;;;;5135454;27;20260;-81
2023/07/15 09:10:51;;;;;;;0.90;0.90;;;32.20;78.20;;;;;;5135295;27;20229;-81
2023/07/15 09:13:24;;;;;;;0.88;0.88;;;32.70;77.40;;;;;;5135164;27;20182;-81
2023/07/15 09:15:51;;;;;;;1.00;1.00;;;32.90;74.70;;;;;;5135934;27;20234;-81
2023/07/15 09:18:18;;;;;;;0.88;0.88;;;32.90;72.90;;;;;;5135268;27;20204;-81
2023/07/15 09:20:45;;;;;;;0.90;0.80;;;32.80;72.70;;;;;;5134839;27;20216;-81
2023/07/15 09:23:13;;;;;;;1.20;1.10;;;32.70;72.60;;;;;;5134444;27;20687;-82
2023/07/15 09:25:50;;;;;;;1.17;1.17;;;32.60;71.40;;;;;;5134794;27;20201;-81
2023/07/15 09:28:18;;;;;;;1.17;1.17;;;32.40;72.40;;;;;;5135585;27;20608;-81
2023/07/15 09:30:45;;;;;;;1.00;1.00;;;32.30;72.30;;;;;;5134987;27;20224;-81
2023/07/15 09:33:29;;;;;;;1.67;0.95;;;32.40;71.80;;;;;;5134651;27;20208;-81
2023/07/15 09:35:56;;;;;;;0.90;0.90;;;32.40;71.00;;;;;;5135017;27;20249;-81
2023/07/15 09:38:24;;;;;;;1.02;0.98;;;32.50;73.50;;;;;;5134857;27;20258;-81
2023/07/15 09:40:51;;;;;;;0.77;0.77;;;32.60;71.20;;;;;;5134491;27;20225;-80
2023/07/15 09:43:17;;;;;;;1.40;1.02;;;32.70;68.60;;;;;;5134416;27;20570;-81
2023/07/15 09:45:45;;;;;;;1.00;0.90;;;32.70;69.60;;;;;;5134484;27;20214;-81
2023/07/15 09:48:13;;;;;;;2.10;1.48;;;32.90;70.90;;;;;;5134773;27;20290;-81
2023/07/15 09:50:41;;;;;;;1.58;1.23;;;32.90;69.40;;;;;;5134636;27;20225;-81
2023/07/15 09:53:08;;;;;;;1.52;1.42;;;32.80;67.50;;;;;;5134706;27;20213;-81
2023/07/15 09:55:38;;;;;;;1.08;0.98;;;32.90;68.80;;;;;;5134656;27;20554;-81
2023/07/15 09:58:19;;;;;;;1.10;1.00;;;33.10;70.10;;;;;;5134392;27;20193;-81
2023/07/15 10:00:49;;;;;;;1.05;0.95;;;33.30;68.50;;;;;;5134393;27;20252;-81
2023/07/15 10:03:24;;;;;;;1.02;0.90;;;33.50;68.20;;;;;;5135027;27;20248;-81
2023/07/15 10:05:51;;;;;;;0.98;0.98;;;33.60;67.30;;;;;;5134551;27;20185;-81
2023/07/15 10:08:18;;;;;;;0.80;0.80;;;33.60;64.20;;;;;;5134179;27;20200;-81
2023/07/15 10:10:48;;;;;;;0.90;0.90;;;33.60;64.90;;;;;;5134410;27;20226;-81
2023/07/15 10:13:15;;;;;;;0.80;0.80;;;33.60;65.10;;;;;;5134425;27;20538;-81
2023/07/15 10:15:44;;;;;;;3.92;1.10;;;33.60;63.90;;;;;;5134404;27;20203;-81
2023/07/15 10:18:14;;;;;;;1.35;1.25;;;33.50;63.80;;;;;;5134082;27;20674;-81
2023/07/15 10:20:47;;;;;;;0.77;0.77;;;33.60;65.40;;;;;;5134339;27;20231;-81
2023/07/15 10:23:17;;;;;;;1.45;1.10;;;33.70;62.40;;;;;;5134433;27;20188;-81
2023/07/15 10:25:57;;;;;;;0.77;0.77;;;33.50;62.30;;;;;;5134357;27;20217;-81
2023/07/15 10:28:24;;;;;;;0.80;0.80;;;33.40;62.60;;;;;;5134341;27;20190;-81
2023/07/15 10:31:07;;;;;;;2.03;1.55;;;33.40;62.00;;;;;;5133890;27;20231;-81
2023/07/15 10:33:35;;;;;;;1.10;1.00;;;33.20;61.70;;;;;;5134264;27;20209;-81
2023/07/15 10:36:05;;;;;;;1.20;1.10;;;33.10;62.90;;;;;;5136711;27;20543;-80
2023/07/15 10:38:33;;;;;;;1.08;0.98;;;33.00;62.60;;;;;;5138390;27;20193;-80
2023/07/15 10:41:03;;;;;;;0.90;0.90;;;33.00;65.60;;;;;;5137983;27;20234;-81
2023/07/15 10:43:41;;;;;;;1.50;1.40;;;32.90;65.10;;;;;;5138635;27;20190;-81
2023/07/15 10:46:09;;;;;;;4.13;0.80;;;33.10;65.30;;;;;;5138303;27;20210;-79
2023/07/15 10:48:36;;;;;;;0.93;0.93;;;33.20;65.00;;;;;;5138212;27;20196;-78
2023/07/15 10:51:06;;;;;;;0.80;0.80;;;33.30;64.60;;;;;;5137819;27;20223;-79
2023/07/15 10:53:34;;;;;;;1.17;1.08;;;33.20;62.70;;;;;;5137806;27;20207;-79
2023/07/15 10:56:03;;;;;;;1.90;1.15;;;33.10;64.40;;;;;;5137818;27;20289;-79
2023/07/15 10:58:33;;;;;;;1.05;1.05;;;33.10;63.70;;;;;;5137690;27;20667;-78
2023/07/15 11:01:01;;;;;;;1.42;1.17;;;33.10;63.60;;;;;;5137747;27;20223;-78
2023/07/15 11:03:28;;;;;;;0.98;0.95;;;33.00;62.90;;;;;;5137689;27;20184;-79
2023/07/15 11:05:57;;;;;;;1.00;0.95;;;32.90;62.80;;;;;;5137810;27;20222;-79
2023/07/15 11:08:24;;;;;;;0.80;0.80;;;33.10;64.60;;;;;;5137845;27;20196;-80
2023/07/15 11:10:57;;;;;;;0.98;0.90;;;33.40;59.30;;;;;;5137719;27;20223;-79
2023/07/15 11:13:25;;;;;;;1.05;0.80;;;34.00;60.40;;;;;;5137809;27;20189;-79
2023/07/15 11:15:53;;;;;;;0.90;0.90;;;34.50;59.90;;;;;;5137401;27;20203;-79
2023/07/15 11:18:21;;;;;;;1.27;1.17;;;34.70;57.20;;;;;;5137742;27;20224;-79
2023/07/15 11:20:49;;;;;;;1.67;0.88;;;34.70;57.00;;;;;;5137619;27;20226;-80
2023/07/15 11:23:17;;;;;;;1.50;1.40;;;34.50;57.10;;;;;;5137268;27;20205;-79
2023/07/15 11:25:44;;;;;;;0.90;0.90;;;34.30;58.30;;;;;;5137141;27;20220;-79
2023/07/15 11:28:12;;;;;;;1.63;0.90;;;34.30;58.50;;;;;;5137141;27;20230;-80
2023/07/15 11:30:41;;;;;;;1.30;0.82;;;34.30;57.40;;;;;;5137517;27;20232;-79
2023/07/15 11:33:08;;;;;;;1.45;0.80;;;34.30;56.80;;;;;;5137312;27;20201;-79
2023/07/15 11:35:37;;;;;;;0.90;0.90;;;34.30;56.80;;;;;;5137383;27;20299;-79
2023/07/15 11:38:07;;;;;;;0.90;0.90;;;34.30;56.60;;;;;;5136886;27;20213;-80
2023/07/15 11:40:36;;;;;;;0.90;0.90;;;34.30;56.00;;;;;;5137120;27;20276;-79
2023/07/15 11:43:06;;;;;;;1.02;1.02;;;34.10;56.70;;;;;;5137198;27;20245;-79
2023/07/15 11:45:33;;;;;;;0.90;0.90;;;33.80;56.60;;;;;;5137107;27;20212;-79
2023/07/15 11:48:01;;;;;;;0.88;0.80;;;33.70;58.10;;;;;;5136202;27;20200;-79
2023/07/15 11:50:28;;;;;;;1.27;1.17;;;33.50;57.70;;;;;;5136647;27;20602;-79
2023/07/15 11:52:58;;;;;;;0.80;0.80;;;33.50;58.00;;;;;;5136991;27;20207;-79
2023/07/15 11:55:26;;;;;;;0.93;0.77;;;33.40;58.80;;;;;;5137031;27;20239;-80
2023/07/15 11:57:53;;;;;;;0.70;0.70;;;33.30;58.80;;;;;;5136900;27;20200;-82
2023/07/15 12:00:32;;;;;;;1.10;1.00;;;33.20;59.10;;;;;;5136806;27;20218;-82
2023/07/15 12:03:07;;;;;;;0.88;0.88;;;33.10;58.70;;;;;;5136276;27;20282;-81
2023/07/15 12:05:38;;;;;;;0.93;0.93;;;33.00;60.80;;;;;;5136404;27;20682;-81
2023/07/15 12:08:12;;;;;;;1.10;1.00;;;32.80;61.80;;;;;;5136730;27;20182;-82
2023/07/15 12:10:49;;;;;;;0.90;0.90;;;32.70;63.40;;;;;;5137356;27;20221;-82
2023/07/15 12:13:16;;;;;;;1.33;1.23;;;32.50;62.00;;;;;;5136393;27;20178;-81
2023/07/15 12:15:43;;;;;;;0.82;0.82;;;32.40;63.30;;;;;;5136214;27;20201;-81
2023/07/15 12:18:11;;;;;;;1.20;1.10;;;32.50;63.80;;;;;;5136233;27;20669;-82
2023/07/15 12:20:38;;;;;;;1.15;1.05;;;32.70;63.70;;;;;;5136080;27;20237;-81
2023/07/15 12:23:05;;;;;;;1.58;1.48;;;32.70;64.80;;;;;;5137146;27;20208;-82
2023/07/15 12:25:32;;;;;;;2.13;1.80;;;32.70;67.10;;;;;;5136310;27;20230;-81
2023/07/15 12:27:59;;;;;;;1.63;1.48;;;32.50;66.60;;;;;;5136305;27;20246;-82
2023/07/15 12:30:26;;;;;;;1.65;1.55;;;32.40;67.60;;;;;;5135857;27;20226;-81
2023/07/15 12:32:52;;;;;;;1.42;1.33;;;32.30;68.20;;;;;;5135907;27;20215;-81
2023/07/15 12:35:21;;;;;;;1.77;1.67;;;32.30;66.90;;;;;;5136200;27;20207;-81
2023/07/15 12:37:47;;;;;;;1.38;1.27;;;32.40;65.90;;;;;;5136132;27;20222;-81
2023/07/15 12:40:14;;;;;;;1.10;1.00;;;32.50;66.30;;;;;;5135699;27;20235;-81
2023/07/15 12:42:41;;;;;;;1.45;1.35;;;32.70;64.80;;;;;;5135986;27;20220;-81
2023/07/15 12:45:11;;;;;;;1.45;1.10;;;32.80;62.10;;;;;;5135590;27;20213;-81
2023/07/15 12:47:37;;;;;;;1.42;1.33;;;32.90;62.80;;;;;;5135802;27;20227;-81
2023/07/15 12:50:05;;;;;;;1.25;1.13;;;33.00;64.10;;;;;;5135760;27;20227;-82
2023/07/15 12:52:33;;;;;;;1.15;1.15;;;33.00;64.30;;;;;;5136661;27;20201;-81